Time;durP1;ratioP1;P1;durP2;ratioP2;P2;SDS_P1;SDS_P2;PMS_P1;PMS_P2;Temp;Humidity;BMP_temperature;BMP_pressure;BME280_temperature;BME280_humidity;BME280_pressure;Samples;Min_cycle;Max_cycle;Signal;HPM_P1;HPM_P2
2023/05/21 00:00:00;;;;;;;14.68;11.65;;;14.80;78.80;;;;;;4872873;29;20164;-86
2023/05/21 00:02:28;;;;;;;14.25;10.90;;;14.90;78.90;;;;;;4873774;29;20051;-86
2023/05/21 00:04:54;;;;;;;12.52;10.43;;;14.80;79.00;;;;;;4873180;29;20040;-86
2023/05/21 00:07:20;;;;;;;16.15;11.20;;;14.70;79.10;;;;;;4874100;29;20052;-86
2023/05/21 00:09:46;;;;;;;13.70;11.02;;;14.70;79.40;;;;;;4889866;29;20035;-86
2023/05/21 00:12:12;;;;;;;14.93;11.95;;;14.70;79.50;;;;;;4887177;29;20036;-86
2023/05/21 00:14:37;;;;;;;13.80;12.13;;;14.60;79.80;;;;;;4895429;29;20032;-87
2023/05/21 00:17:03;;;;;;;14.80;12.23;;;14.60;79.80;;;;;;4878649;29;20037;-86
2023/05/21 00:19:31;;;;;;;13.45;11.38;;;14.60;80.10;;;;;;4889456;29;20041;-86
2023/05/21 00:21:57;;;;;;;15.68;11.98;;;14.50;80.30;;;;;;4873920;29;20770;-86
2023/05/21 00:24:22;;;;;;;14.45;12.38;;;14.50;80.60;;;;;;4884554;29;20040;-87
2023/05/21 00:26:48;;;;;;;15.27;12.23;;;14.40;80.60;;;;;;4870905;29;20200;-87
2023/05/21 00:29:14;;;;;;;15.25;12.25;;;14.40;80.80;;;;;;4873950;29;20036;-86
2023/05/21 00:31:40;;;;;;;18.27;14.40;;;14.40;80.70;;;;;;4873167;29;20037;-86
2023/05/21 00:34:05;;;;;;;17.70;14.20;;;14.30;80.90;;;;;;4888973;29;20438;-86
2023/05/21 00:36:33;;;;;;;15.32;12.93;;;14.30;81.00;;;;;;4872906;29;20044;-85
2023/05/21 00:38:59;;;;;;;18.30;13.45;;;14.30;80.90;;;;;;4868906;29;20052;-85
2023/05/21 00:41:25;;;;;;;17.48;13.38;;;14.30;80.80;;;;;;4870898;29;20067;-83
2023/05/21 00:43:51;;;;;;;16.10;12.50;;;14.30;80.90;;;;;;4888671;29;20120;-86
2023/05/21 00:46:19;;;;;;;17.17;13.18;;;14.20;81.10;;;;;;4872208;29;20051;-84
2023/05/21 00:48:46;;;;;;;16.58;13.43;;;14.20;81.10;;;;;;4872654;29;20039;-86
2023/05/21 00:51:13;;;;;;;15.80;13.32;;;14.20;81.10;;;;;;4868882;29;20044;-86
2023/05/21 00:53:39;;;;;;;17.60;14.45;;;14.10;81.20;;;;;;4890872;29;20497;-86
2023/05/21 00:56:06;;;;;;;15.68;13.55;;;14.10;81.20;;;;;;4873851;29;20040;-86
2023/05/21 00:58:32;;;;;;;18.23;13.77;;;14.10;81.30;;;;;;4870360;29;20088;-86
2023/05/21 01:01:02;;;;;;;17.63;14.18;;;14.10;81.40;;;;;;4875971;29;20614;-86
2023/05/21 01:03:29;;;;;;;16.42;13.30;;;14.10;81.40;;;;;;4869927;29;20047;-86
2023/05/21 01:05:58;;;;;;;14.98;13.13;;;14.00;81.50;;;;;;4872581;29;20025;-86
2023/05/21 01:08:26;;;;;;;17.40;13.05;;;14.00;81.50;;;;;;4869906;29;20033;-86
2023/05/21 01:10:52;;;;;;;18.88;13.77;;;14.00;81.60;;;;;;4873628;29;20049;-86
2023/05/21 01:13:21;;;;;;;16.88;13.70;;;13.90;81.60;;;;;;4855585;29;20506;-86
2023/05/21 01:15:48;;;;;;;16.85;14.45;;;13.90;81.70;;;;;;4849326;29;20161;-86
2023/05/21 01:18:14;;;;;;;18.20;14.07;;;13.90;81.80;;;;;;4850753;29;20120;-86
2023/05/21 01:20:43;;;;;;;15.10;12.93;;;13.90;81.90;;;;;;4849669;29;20477;-86
2023/05/21 01:23:10;;;;;;;16.48;13.30;;;13.80;81.80;;;;;;4853274;29;20056;-86
2023/05/21 01:25:35;;;;;;;16.85;13.15;;;13.70;81.90;;;;;;4848199;29;20557;-86
2023/05/21 01:28:01;;;;;;;17.02;13.13;;;13.70;82.00;;;;;;4870788;29;20132;-86
2023/05/21 01:30:27;;;;;;;16.63;13.10;;;13.70;82.10;;;;;;4868857;29;20043;-86
2023/05/21 01:33:27;;;;;;;17.40;13.30;;;13.60;82.10;;;;;;4851148;29;20041;-86
2023/05/21 01:35:59;;;;;;;15.20;13.00;;;13.60;82.00;;;;;;4841996;29;20078;-85
2023/05/21 01:38:42;;;;;;;16.85;12.88;;;13.60;82.00;;;;;;4852641;29;20101;-85
2023/05/21 01:41:13;;;;;;;13.57;12.18;;;13.60;81.90;;;;;;4869293;29;20430;-86
2023/05/21 01:43:41;;;;;;;17.55;12.73;;;13.60;81.90;;;;;;4851999;29;20257;-86
2023/05/21 01:46:11;;;;;;;13.32;11.80;;;13.60;81.80;;;;;;4854717;29;20116;-86
2023/05/21 01:48:38;;;;;;;14.82;12.20;;;13.50;81.90;;;;;;4852943;29;20029;-86
2023/05/21 01:51:05;;;;;;;14.43;12.80;;;13.50;81.90;;;;;;4860140;29;20105;-88
2023/05/21 01:53:31;;;;;;;16.02;12.45;;;13.50;82.00;;;;;;4853961;29;20040;-87
2023/05/21 01:55:58;;;;;;;16.77;13.40;;;13.50;82.00;;;;;;4855815;29;20029;-86
2023/05/21 01:58:24;;;;;;;17.30;12.82;;;13.40;82.00;;;;;;4852641;29;20096;-86
2023/05/21 02:00:50;;;;;;;16.27;12.73;;;13.40;82.10;;;;;;4853642;29;20033;-86
2023/05/21 02:03:18;;;;;;;15.70;13.73;;;13.40;82.10;;;;;;4847082;29;20029;-85
2023/05/21 02:05:43;;;;;;;16.80;12.98;;;13.40;82.40;;;;;;4866960;29;20060;-85
2023/05/21 02:08:10;;;;;;;15.88;13.13;;;13.30;82.50;;;;;;4868310;29;20450;-86
2023/05/21 02:10:35;;;;;;;17.73;13.25;;;13.30;82.60;;;;;;4855028;29;20057;-86
2023/05/21 02:13:02;;;;;;;16.13;13.45;;;13.30;82.70;;;;;;4856716;29;20041;-86
2023/05/21 02:15:27;;;;;;;16.48;14.65;;;13.10;82.70;;;;;;4854999;29;20033;-86
2023/05/21 02:17:54;;;;;;;15.85;14.25;;;13.10;82.90;;;;;;4855226;29;20100;-85
2023/05/21 02:20:21;;;;;;;18.92;14.50;;;13.10;83.00;;;;;;4855066;29;20124;-85
2023/05/21 02:22:47;;;;;;;17.58;14.63;;;13.10;83.00;;;;;;4884602;29;20033;-85
2023/05/21 02:25:17;;;;;;;17.02;14.35;;;13.10;83.10;;;;;;4876402;29;20032;-85
2023/05/21 02:27:43;;;;;;;18.60;14.07;;;13.10;83.10;;;;;;4872954;29;20135;-85
2023/05/21 02:30:13;;;;;;;19.50;15.00;;;13.10;83.30;;;;;;4852965;29;21374;-85
2023/05/21 02:32:41;;;;;;;16.48;13.27;;;13.10;83.30;;;;;;4853400;29;20531;-85
2023/05/21 02:35:08;;;;;;;17.20;14.45;;;13.00;83.30;;;;;;4873214;29;20092;-85
2023/05/21 02:37:34;;;;;;;16.00;14.23;;;13.00;83.40;;;;;;4855512;29;20049;-85
2023/05/21 02:40:02;;;;;;;16.00;14.30;;;13.00;83.40;;;;;;4858116;29;20131;-86
2023/05/21 02:42:28;;;;;;;15.80;14.10;;;13.00;83.40;;;;;;4865366;29;20102;-85
2023/05/21 02:44:53;;;;;;;17.58;14.80;;;13.00;83.50;;;;;;4876287;29;20029;-87
2023/05/21 02:47:19;;;;;;;16.55;14.65;;;13.00;83.40;;;;;;4863146;29;20422;-85
2023/05/21 02:49:45;;;;;;;16.90;14.07;;;12.90;83.50;;;;;;4861305;29;20085;-85
2023/05/21 02:52:11;;;;;;;16.13;14.43;;;12.90;83.40;;;;;;4859817;29;20355;-85
2023/05/21 02:54:38;;;;;;;17.25;14.45;;;12.90;83.30;;;;;;4860924;29;21277;-86
2023/05/21 02:57:04;;;;;;;17.10;14.10;;;12.90;83.30;;;;;;4858514;29;20036;-85
2023/05/21 02:59:30;;;;;;;15.52;13.68;;;12.90;83.20;;;;;;4860701;29;20045;-86
2023/05/21 03:01:56;;;;;;;15.98;13.75;;;12.90;83.30;;;;;;4861790;29;20036;-86
2023/05/21 03:04:22;;;;;;;16.50;13.07;;;12.80;83.20;;;;;;4861620;29;20040;-86
2023/05/21 03:06:50;;;;;;;15.93;14.25;;;12.80;83.20;;;;;;4862231;29;20446;-86
2023/05/21 03:09:17;;;;;;;17.50;14.60;;;12.80;83.30;;;;;;4859591;29;20467;-86
2023/05/21 03:11:43;;;;;;;15.48;13.85;;;12.80;83.30;;;;;;4865254;29;20059;-85
2023/05/21 03:14:09;;;;;;;16.05;14.13;;;12.80;83.40;;;;;;4870349;29;20036;-85
2023/05/21 03:16:34;;;;;;;16.38;14.63;;;12.70;83.30;;;;;;4871511;29;20051;-85
2023/05/21 03:19:00;;;;;;;17.60;14.15;;;12.80;83.40;;;;;;4860398;29;20419;-86
2023/05/21 03:21:28;;;;;;;16.67;14.20;;;12.80;83.30;;;;;;4873857;29;20147;-85
2023/05/21 03:23:57;;;;;;;15.32;13.35;;;12.70;83.30;;;;;;4873529;29;20150;-85
2023/05/21 03:26:26;;;;;;;15.70;13.15;;;12.70;83.30;;;;;;4859202;29;20547;-85
2023/05/21 03:28:52;;;;;;;17.13;13.18;;;12.70;83.30;;;;;;4871098;29;20028;-86
2023/05/21 03:31:18;;;;;;;17.20;14.45;;;12.70;83.30;;;;;;4852775;29;20041;-85
2023/05/21 03:33:44;;;;;;;20.00;15.27;;;12.70;83.40;;;;;;4862490;29;20344;-85
2023/05/21 03:36:10;;;;;;;17.58;14.82;;;12.60;83.50;;;;;;4860122;29;20029;-86
2023/05/21 03:38:36;;;;;;;17.83;15.50;;;12.60;83.60;;;;;;4855976;29;20524;-85
2023/05/21 03:41:02;;;;;;;17.80;15.73;;;12.60;83.80;;;;;;4857246;29;20033;-86
2023/05/21 03:43:28;;;;;;;17.83;16.02;;;12.60;84.00;;;;;;4858627;29;20786;-85
2023/05/21 03:45:54;;;;;;;19.08;17.08;;;12.60;84.10;;;;;;4856397;29;20040;-87
2023/05/21 03:48:20;;;;;;;18.45;16.48;;;12.60;84.30;;;;;;4869727;29;20161;-85
2023/05/21 03:50:45;;;;;;;20.10;17.98;;;12.50;84.50;;;;;;4856919;29;20132;-85
2023/05/21 03:53:12;;;;;;;21.20;16.63;;;12.60;84.50;;;;;;4861532;29;20045;-85
2023/05/21 03:55:38;;;;;;;18.55;16.65;;;12.60;84.60;;;;;;4858220;29;20076;-86
2023/05/21 03:58:04;;;;;;;20.08;17.10;;;12.50;84.60;;;;;;4854631;29;20635;-86
2023/05/21 04:00:31;;;;;;;19.25;17.30;;;12.50;84.60;;;;;;4857073;29;20103;-86
2023/05/21 04:02:57;;;;;;;19.45;17.52;;;12.50;84.70;;;;;;4858192;29;20311;-86
2023/05/21 04:05:23;;;;;;;20.85;18.60;;;12.50;84.90;;;;;;4874408;29;20049;-85
2023/05/21 04:07:49;;;;;;;19.95;17.85;;;12.50;84.80;;;;;;4859122;29;20037;-85
2023/05/21 04:10:15;;;;;;;21.65;18.33;;;12.60;84.70;;;;;;4862094;29;20065;-85
2023/05/21 04:12:41;;;;;;;20.13;17.90;;;12.60;84.60;;;;;;4857157;29;20083;-85
2023/05/21 04:15:07;;;;;;;19.85;17.80;;;12.60;84.60;;;;;;4864411;29;20028;-85
2023/05/21 04:17:34;;;;;;;21.65;18.85;;;12.60;84.60;;;;;;4858528;29;20047;-87
2023/05/21 04:20:00;;;;;;;21.00;18.95;;;12.60;84.60;;;;;;4862272;29;20128;-87
2023/05/21 04:22:26;;;;;;;20.98;18.80;;;12.60;84.50;;;;;;4872809;29;20064;-85
2023/05/21 04:24:54;;;;;;;21.08;18.88;;;12.60;84.50;;;;;;4861119;29;20514;-84
2023/05/21 04:27:23;;;;;;;23.80;20.58;;;12.60;84.50;;;;;;4861308;29;20037;-86
2023/05/21 04:29:49;;;;;;;21.73;19.55;;;12.60;84.50;;;;;;4852184;29;20028;-85
2023/05/21 04:32:16;;;;;;;23.40;20.27;;;12.60;84.50;;;;;;4856288;29;20117;-85
2023/05/21 04:34:43;;;;;;;21.77;19.33;;;12.60;84.60;;;;;;4872732;29;20119;-85
2023/05/21 04:37:09;;;;;;;21.60;19.40;;;12.60;84.50;;;;;;4875978;29;20100;-85
2023/05/21 04:39:35;;;;;;;23.00;20.58;;;12.70;84.40;;;;;;4857201;29;20041;-86
2023/05/21 04:42:02;;;;;;;22.67;20.38;;;12.70;84.50;;;;;;4875029;29;20048;-85
2023/05/21 04:44:28;;;;;;;24.08;21.73;;;12.70;84.60;;;;;;4875269;29;20068;-84
2023/05/21 04:46:56;;;;;;;23.15;20.60;;;12.70;84.60;;;;;;4857661;29;20133;-84
2023/05/21 04:49:22;;;;;;;24.70;22.02;;;12.70;84.50;;;;;;4863711;29;20482;-85
2023/05/21 04:51:48;;;;;;;24.08;21.67;;;12.80;84.50;;;;;;4887868;29;20029;-84
2023/05/21 04:54:14;;;;;;;23.02;20.63;;;13.00;84.40;;;;;;4894903;29;20029;-84
2023/05/21 04:56:40;;;;;;;25.90;22.13;;;13.00;84.00;;;;;;4879518;29;20049;-85
2023/05/21 04:59:05;;;;;;;24.10;21.00;;;13.00;83.80;;;;;;4861900;29;20037;-85
2023/05/21 05:01:33;;;;;;;23.55;21.15;;;13.10;83.80;;;;;;4875310;29;20075;-85
2023/05/21 05:03:59;;;;;;;24.60;22.05;;;13.10;83.60;;;;;;4868294;29;20032;-87
2023/05/21 05:06:25;;;;;;;24.00;21.65;;;13.20;83.50;;;;;;4859695;29;20041;-86
2023/05/21 05:08:51;;;;;;;24.75;22.25;;;13.30;83.40;;;;;;4857975;29;20083;-85
2023/05/21 05:11:17;;;;;;;27.52;23.00;;;13.30;83.30;;;;;;4854231;29;20045;-84
2023/05/21 05:13:42;;;;;;;24.77;22.05;;;13.40;83.20;;;;;;4855473;29;20029;-85
2023/05/21 05:16:08;;;;;;;26.85;23.20;;;13.50;83.00;;;;;;4849995;29;20048;-85
2023/05/21 05:18:35;;;;;;;29.88;22.55;;;13.50;82.80;;;;;;4853741;29;20032;-85
2023/05/21 05:21:01;;;;;;;24.40;21.80;;;13.70;82.80;;;;;;4866673;29;20766;-86
2023/05/21 05:23:26;;;;;;;24.63;21.95;;;13.80;82.30;;;;;;4847594;29;20057;-85
2023/05/21 05:25:52;;;;;;;23.55;21.15;;;13.90;82.30;;;;;;4868070;29;20398;-86
2023/05/21 05:28:18;;;;;;;24.95;22.35;;;14.00;81.50;;;;;;4872897;29;20521;-85
2023/05/21 05:30:43;;;;;;;24.67;22.08;;;14.00;82.10;;;;;;4865162;29;20041;-85
2023/05/21 05:33:10;;;;;;;22.45;20.17;;;14.20;81.60;;;;;;4856210;29;20047;-85
2023/05/21 05:35:38;;;;;;;22.70;20.27;;;14.50;80.40;;;;;;4871581;29;20062;-85
2023/05/21 05:38:05;;;;;;;22.83;19.98;;;14.70;79.30;;;;;;4861108;29;20106;-85
2023/05/21 05:40:30;;;;;;;22.23;19.83;;;14.90;79.20;;;;;;4853072;29;20135;-85
2023/05/21 05:42:56;;;;;;;22.73;20.15;;;14.90;78.60;;;;;;4867246;29;20223;-86
2023/05/21 05:45:22;;;;;;;22.67;20.30;;;14.80;79.00;;;;;;4850040;29;20493;-86
2023/05/21 05:47:47;;;;;;;23.60;21.27;;;14.80;79.10;;;;;;4858177;29;20092;-86
2023/05/21 05:50:13;;;;;;;23.55;21.05;;;14.60;79.50;;;;;;4868533;29;20041;-85
2023/05/21 05:52:39;;;;;;;23.90;20.88;;;14.60;79.90;;;;;;4853471;29;20041;-86
2023/05/21 05:55:07;;;;;;;23.25;20.70;;;14.50;79.90;;;;;;4858092;29;20448;-86
2023/05/21 05:57:33;;;;;;;23.95;21.02;;;14.60;80.50;;;;;;4856083;29;20108;-88
2023/05/21 05:59:59;;;;;;;24.17;21.63;;;14.70;80.20;;;;;;4854673;29;20204;-86
2023/05/21 06:02:25;;;;;;;25.42;20.83;;;14.90;80.00;;;;;;4854605;29;20036;-86
2023/05/21 06:04:50;;;;;;;23.98;21.13;;;14.80;80.10;;;;;;4875750;29;20029;-86
2023/05/21 06:07:16;;;;;;;23.40;21.02;;;15.10;79.60;;;;;;4856048;29;20041;-86
2023/05/21 06:09:42;;;;;;;21.13;18.92;;;15.20;79.60;;;;;;4855648;29;20036;-86
2023/05/21 06:12:07;;;;;;;22.38;19.55;;;15.30;78.60;;;;;;4873161;29;20603;-86
2023/05/21 06:14:33;;;;;;;23.15;20.65;;;15.30;78.70;;;;;;4875666;29;20206;-86
2023/05/21 06:16:59;;;;;;;21.42;19.17;;;15.20;78.80;;;;;;4874783;29;20084;-86
2023/05/21 06:19:24;;;;;;;20.83;18.50;;;15.20;78.90;;;;;;4877414;29;20037;-86
2023/05/21 06:21:50;;;;;;;22.02;18.50;;;15.30;79.60;;;;;;4873992;29;20040;-87
2023/05/21 06:24:19;;;;;;;20.63;18.42;;;15.50;79.30;;;;;;4894619;29;20466;-87
2023/05/21 06:26:45;;;;;;;21.02;18.10;;;15.70;78.80;;;;;;4884683;29;20167;-88
2023/05/21 06:29:11;;;;;;;19.00;17.10;;;16.00;77.90;;;;;;4883820;29;20029;-86
2023/05/21 06:31:36;;;;;;;19.65;17.55;;;15.90;77.10;;;;;;4873999;29;20063;-88
2023/05/21 06:34:02;;;;;;;18.33;16.42;;;16.10;77.20;;;;;;4872209;29;20437;-89
2023/05/21 06:36:28;;;;;;;20.40;17.13;;;16.10;77.00;;;;;;4877135;29;20610;-87
2023/05/21 06:38:58;;;;;;;18.17;15.00;;;16.30;76.50;;;;;;4880327;29;20039;-86
2023/05/21 06:41:23;;;;;;;17.17;15.32;;;16.50;75.80;;;;;;4884769;29;20225;-86
2023/05/21 06:43:49;;;;;;;18.80;15.50;;;16.60;76.10;;;;;;4887897;29;20039;-86
2023/05/21 06:46:15;;;;;;;17.10;13.98;;;16.50;75.80;;;;;;4880841;29;20041;-86
2023/05/21 06:48:45;;;;;;;21.17;14.25;;;16.50;75.00;;;;;;4887019;29;20033;-85
2023/05/21 06:51:11;;;;;;;17.15;13.10;;;16.70;76.10;;;;;;4892089;29;20529;-85
2023/05/21 06:53:40;;;;;;;17.25;14.77;;;16.90;74.70;;;;;;4908843;29;20033;-86
2023/05/21 06:56:06;;;;;;;17.58;14.80;;;16.90;74.50;;;;;;4889943;29;20032;-87
2023/05/21 06:58:32;;;;;;;18.17;13.50;;;16.90;74.00;;;;;;4886310;29;20153;-85
2023/05/21 07:00:58;;;;;;;14.10;12.25;;;17.00;74.20;;;;;;4889433;29;20016;-84
2023/05/21 07:03:24;;;;;;;14.40;11.93;;;17.10;74.00;;;;;;4890207;29;20059;-86
2023/05/21 07:05:50;;;;;;;14.20;12.30;;;17.10;72.30;;;;;;4888481;29;20153;-85
2023/05/21 07:08:16;;;;;;;17.73;12.63;;;17.20;72.90;;;;;;4888094;29;20052;-86
2023/05/21 07:10:47;;;;;;;15.57;12.05;;;17.30;73.10;;;;;;4886512;29;20072;-86
2023/05/21 07:13:15;;;;;;;14.93;11.35;;;17.30;72.90;;;;;;4890281;29;20040;-88
2023/05/21 07:15:43;;;;;;;13.85;12.27;;;17.50;72.80;;;;;;4894459;29;20024;-85
2023/05/21 07:18:12;;;;;;;14.77;12.20;;;17.60;71.20;;;;;;4906415;29;20044;-85
2023/05/21 07:20:38;;;;;;;15.95;11.63;;;17.80;71.30;;;;;;4891871;29;20036;-87
2023/05/21 07:23:04;;;;;;;16.08;11.88;;;17.90;71.50;;;;;;4894751;29;20032;-86
2023/05/21 07:25:30;;;;;;;13.63;11.05;;;18.00;71.20;;;;;;4897272;29;20108;-86
2023/05/21 07:27:56;;;;;;;13.75;10.18;;;18.30;70.40;;;;;;4904465;29;20040;-86
2023/05/21 07:30:21;;;;;;;14.95;11.07;;;18.20;70.20;;;;;;4888668;29;20033;-85
2023/05/21 07:32:47;;;;;;;18.50;10.77;;;18.40;69.40;;;;;;4888220;29;20044;-86
2023/05/21 07:35:13;;;;;;;13.75;10.40;;;18.40;69.10;;;;;;4904423;29;20076;-85
2023/05/21 07:37:39;;;;;;;13.90;11.02;;;18.50;69.60;;;;;;4903050;29;20041;-86
2023/05/21 07:40:06;;;;;;;13.15;11.13;;;18.70;68.90;;;;;;4888381;29;20040;-85
2023/05/21 07:42:32;;;;;;;13.70;10.18;;;18.80;68.60;;;;;;4902301;29;20032;-86
2023/05/21 07:44:58;;;;;;;12.82;10.40;;;18.70;68.70;;;;;;4888563;29;20055;-86
2023/05/21 07:47:24;;;;;;;12.57;10.23;;;18.90;68.10;;;;;;4875134;29;20504;-86
2023/05/21 07:49:50;;;;;;;13.98;10.32;;;18.80;68.40;;;;;;4874497;29;20024;-87
2023/05/21 07:52:16;;;;;;;14.57;10.82;;;18.80;67.40;;;;;;4889663;29;20064;-87
2023/05/21 07:54:45;;;;;;;13.30;10.13;;;18.90;67.50;;;;;;4862203;29;20033;-87
2023/05/21 07:57:10;;;;;;;14.10;11.13;;;18.80;68.10;;;;;;4874904;29;20135;-86
2023/05/21 07:59:36;;;;;;;15.02;10.65;;;18.80;68.60;;;;;;4878796;29;20040;-87
2023/05/21 08:02:02;;;;;;;14.80;10.57;;;18.80;67.80;;;;;;4888768;29;20040;-87
2023/05/21 08:04:27;;;;;;;13.75;9.63;;;18.80;67.80;;;;;;4876577;29;20029;-86
2023/05/21 08:06:53;;;;;;;13.20;10.43;;;18.90;68.50;;;;;;4878669;29;20048;-88
2023/05/21 08:09:19;;;;;;;16.77;10.15;;;18.80;67.20;;;;;;4885959;29;20032;-86
2023/05/21 08:11:45;;;;;;;13.82;11.23;;;19.00;67.10;;;;;;4890194;29;20048;-88
2023/05/21 08:14:11;;;;;;;15.10;10.82;;;19.10;67.70;;;;;;4874156;29;20044;-87
2023/05/21 08:16:37;;;;;;;15.13;10.45;;;19.30;66.80;;;;;;4873388;29;20041;-87
2023/05/21 08:19:03;;;;;;;15.38;10.63;;;19.20;65.80;;;;;;4888594;29;20081;-85
2023/05/21 08:21:29;;;;;;;16.05;10.25;;;19.30;66.20;;;;;;4902832;29;20040;-87
2023/05/21 08:23:55;;;;;;;13.13;9.85;;;19.10;65.60;;;;;;4881667;29;20047;-86
2023/05/21 08:26:21;;;;;;;13.07;10.45;;;19.30;66.50;;;;;;4872115;29;20036;-87
2023/05/21 08:28:47;;;;;;;15.10;10.95;;;19.50;64.90;;;;;;4875341;29;20047;-89
2023/05/21 08:31:13;;;;;;;12.20;9.98;;;19.30;65.50;;;;;;4873045;29;20050;-88
2023/05/21 08:33:39;;;;;;;14.20;10.30;;;19.50;66.20;;;;;;4875904;29;20040;-88
2023/05/21 08:36:06;;;;;;;14.80;10.13;;;20.00;65.40;;;;;;4875718;29;20036;-85
2023/05/21 08:38:32;;;;;;;13.82;9.95;;;19.70;64.00;;;;;;4868661;29;20128;-87
2023/05/21 08:40:59;;;;;;;14.63;11.20;;;20.10;64.20;;;;;;4870848;29;20513;-86
2023/05/21 08:43:28;;;;;;;16.63;10.32;;;20.10;62.80;;;;;;4890271;29;20041;-87
2023/05/21 08:45:56;;;;;;;12.98;9.73;;;20.10;63.50;;;;;;4875699;29;20028;-86
2023/05/21 08:48:22;;;;;;;13.25;10.18;;;19.90;64.00;;;;;;4893740;29;20319;-86
2023/05/21 08:50:52;;;;;;;13.77;10.57;;;20.40;63.80;;;;;;4883496;29;20036;-86
2023/05/21 08:53:18;;;;;;;14.48;10.73;;;20.10;62.30;;;;;;4883562;29;20055;-87
2023/05/21 08:55:45;;;;;;;16.50;11.50;;;20.10;63.00;;;;;;4880438;29;20066;-87
2023/05/21 08:58:12;;;;;;;13.18;10.63;;;20.10;63.40;;;;;;4890771;29;20037;-87
2023/05/21 09:00:43;;;;;;;13.40;10.38;;;20.30;62.70;;;;;;4895589;29;20303;-88
2023/05/21 09:03:12;;;;;;;13.15;10.02;;;20.40;61.80;;;;;;4874423;29;20858;-86
2023/05/21 09:05:42;;;;;;;14.48;9.80;;;20.30;61.70;;;;;;4876167;29;20048;-87
2023/05/21 09:08:18;;;;;;;14.02;9.55;;;20.10;62.30;;;;;;4872314;29;20060;-87
2023/05/21 09:10:51;;;;;;;12.90;9.90;;;20.60;62.60;;;;;;4891257;29;20052;-86
2023/05/21 09:13:18;;;;;;;14.68;10.02;;;20.60;60.90;;;;;;4875040;29;20033;-88
2023/05/21 09:15:44;;;;;;;14.30;10.23;;;20.80;61.00;;;;;;4876508;29;20122;-86
2023/05/21 09:18:11;;;;;;;13.70;10.63;;;21.10;61.00;;;;;;4873561;29;20075;-88
2023/05/21 09:20:37;;;;;;;15.68;10.07;;;21.10;60.90;;;;;;4892545;29;20028;-86
2023/05/21 09:23:04;;;;;;;14.93;10.63;;;21.20;61.40;;;;;;4888910;29;20402;-87
2023/05/21 09:25:33;;;;;;;13.27;10.57;;;21.10;60.70;;;;;;4878874;29;20028;-87
2023/05/21 09:27:59;;;;;;;13.50;10.35;;;20.80;62.00;;;;;;4876725;29;20453;-87
2023/05/21 09:30:26;;;;;;;13.52;10.20;;;20.90;60.90;;;;;;4872149;29;20092;-88
2023/05/21 09:32:57;;;;;;;14.15;9.80;;;21.00;60.90;;;;;;4872148;29;20113;-86
2023/05/21 09:35:23;;;;;;;13.30;9.73;;;21.10;60.50;;;;;;4876994;29;20055;-87
2023/05/21 09:37:51;;;;;;;13.15;10.35;;;20.70;62.00;;;;;;4870958;29;20321;-87
2023/05/21 09:40:21;;;;;;;15.35;11.80;;;21.10;60.40;;;;;;4887401;29;20031;-87
2023/05/21 09:42:50;;;;;;;14.02;10.30;;;20.70;61.50;;;;;;4876426;29;20122;-87
2023/05/21 09:45:24;;;;;;;16.48;11.07;;;20.60;62.40;;;;;;4902325;29;20056;-87
2023/05/21 09:47:52;;;;;;;13.82;10.52;;;20.60;62.00;;;;;;4885697;29;20056;-86
2023/05/21 09:50:23;;;;;;;15.15;10.85;;;20.70;62.60;;;;;;4889919;29;20099;-88
2023/05/21 09:52:51;;;;;;;14.05;11.43;;;20.50;62.80;;;;;;4881908;29;20047;-84
2023/05/21 09:55:18;;;;;;;17.75;11.45;;;20.10;63.50;;;;;;4885964;29;20029;-87
2023/05/21 09:57:45;;;;;;;13.45;10.43;;;20.30;63.60;;;;;;4877813;29;20083;-86
2023/05/21 10:00:26;;;;;;;15.95;11.57;;;20.40;63.70;;;;;;4887848;29;20132;-87
2023/05/21 10:02:56;;;;;;;14.98;10.88;;;20.60;62.50;;;;;;4879223;29;20040;-89
2023/05/21 10:05:28;;;;;;;16.17;11.35;;;20.70;62.70;;;;;;4895582;29;20052;-88
2023/05/21 10:08:02;;;;;;;15.45;11.82;;;20.60;63.20;;;;;;4886046;29;20104;-89
2023/05/21 10:10:30;;;;;;;15.07;11.52;;;20.60;62.40;;;;;;4877269;29;20131;-88
2023/05/21 10:13:11;;;;;;;15.60;11.60;;;20.60;62.70;;;;;;4865317;29;20072;-89
2023/05/21 10:15:51;;;;;;;13.43;11.45;;;20.90;62.30;;;;;;4876576;29;20029;-88
2023/05/21 10:18:20;;;;;;;13.50;10.70;;;20.70;63.00;;;;;;4873678;29;20766;-90
2023/05/21 10:20:46;;;;;;;15.10;13.30;;;20.90;63.10;;;;;;4887680;29;20056;-88
2023/05/21 10:23:12;;;;;;;18.75;13.43;;;21.00;61.80;;;;;;4872628;29;20490;-87
2023/05/21 10:25:40;;;;;;;17.27;12.60;;;20.70;61.90;;;;;;4875061;29;20076;-88
2023/05/21 10:28:06;;;;;;;17.00;13.15;;;20.70;63.60;;;;;;4874244;29;20555;-88
2023/05/21 10:30:33;;;;;;;18.17;13.93;;;20.90;63.20;;;;;;4873404;29;20037;-87
2023/05/21 10:33:00;;;;;;;16.23;13.05;;;21.00;62.60;;;;;;4877594;29;20305;-89
2023/05/21 10:35:27;;;;;;;17.55;13.98;;;21.00;62.80;;;;;;4880190;29;20024;-90
2023/05/21 10:37:55;;;;;;;16.02;14.02;;;21.00;62.10;;;;;;4890575;29;20040;-85
2023/05/21 10:40:21;;;;;;;15.30;13.60;;;21.20;62.40;;;;;;4885727;29;20059;-89
2023/05/21 10:43:29;;;;;;;18.08;13.82;;;21.10;62.20;;;;;;4888116;29;20413;-88
2023/05/21 10:46:28;;;;;;;15.25;13.65;;;21.10;62.40;;;;;;4873946;29;20044;-88
2023/05/21 10:49:09;;;;;;;16.60;13.70;;;21.10;62.60;;;;;;4885610;29;20037;-87
2023/05/21 10:51:52;;;;;;;16.17;13.98;;;21.10;62.30;;;;;;4885493;29;20901;-87
2023/05/21 10:54:54;;;;;;;16.35;14.43;;;21.40;62.40;;;;;;4889356;29;20032;-88
2023/05/21 10:57:32;;;;;;;18.50;16.60;;;21.50;61.50;;;;;;4894190;29;20033;-87
2023/05/21 10:59:58;;;;;;;18.38;15.55;;;21.00;62.70;;;;;;4889561;29;20041;-88
2023/05/21 11:02:26;;;;;;;19.50;14.77;;;21.30;62.40;;;;;;4888839;29;20472;-89
2023/05/21 11:04:58;;;;;;;17.60;14.98;;;21.60;62.40;;;;;;4869682;29;20064;-89
2023/05/21 11:07:56;;;;;;;16.40;14.68;;;21.90;61.00;;;;;;4887784;29;20096;-88
2023/05/21 11:10:44;;;;;;;16.95;14.88;;;22.10;59.80;;;;;;4876097;29;20589;-87
2023/05/21 11:13:18;;;;;;;18.42;16.25;;;21.70;61.20;;;;;;4877330;29;20058;-86
2023/05/21 11:16:00;;;;;;;17.08;15.38;;;21.40;62.40;;;;;;4891360;29;20049;-88
2023/05/21 11:18:36;;;;;;;16.30;14.55;;;21.20;62.90;;;;;;4892710;29;20669;-87
2023/05/21 11:21:09;;;;;;;19.73;16.15;;;21.10;64.00;;;;;;4876578;29;20050;-86
2023/05/21 11:23:51;;;;;;;18.33;16.47;;;20.90;63.50;;;;;;4880258;29;20111;-87
2023/05/21 11:26:18;;;;;;;20.20;17.83;;;20.60;64.70;;;;;;4902297;29;20065;-87
2023/05/21 11:28:44;;;;;;;21.08;18.67;;;20.60;65.20;;;;;;4900563;29;20101;-86
2023/05/21 11:31:26;;;;;;;18.73;16.73;;;20.60;65.80;;;;;;4906627;29;20048;-88
2023/05/21 11:34:14;;;;;;;18.35;16.40;;;20.80;65.20;;;;;;4895019;29;20060;-87
2023/05/21 11:36:41;;;;;;;17.92;16.02;;;20.80;64.50;;;;;;4880276;29;20051;-87
2023/05/21 11:39:21;;;;;;;19.92;16.92;;;20.70;64.80;;;;;;4878595;29;20115;-87
2023/05/21 11:42:00;;;;;;;19.08;17.08;;;20.80;65.40;;;;;;4884127;29;20040;-88
2023/05/21 11:44:45;;;;;;;19.85;17.85;;;21.00;64.70;;;;;;4895891;29;20032;-88
2023/05/21 11:47:18;;;;;;;20.15;18.05;;;21.10;63.80;;;;;;4888249;29;20140;-89
2023/05/21 11:49:45;;;;;;;20.13;18.10;;;21.10;63.40;;;;;;4884241;29;20031;-89
2023/05/21 11:52:12;;;;;;;21.42;17.70;;;20.70;64.50;;;;;;4884665;29;20047;-87
2023/05/21 11:54:50;;;;;;;18.58;16.73;;;20.70;65.80;;;;;;4897959;29;20071;-84
2023/05/21 11:57:20;;;;;;;42.50;33.00;;;20.60;65.90;;;;;;4896345;29;20522;-85
2023/05/21 11:59:46;;;;;;;23.25;20.88;;;20.60;65.70;;;;;;4889394;29;20025;-86
2023/05/21 12:02:17;;;;;;;75.28;57.53;;;20.40;66.60;;;;;;4885408;29;20033;-85
2023/05/21 12:04:43;;;;;;;19.60;17.60;;;20.40;67.00;;;;;;4894621;29;20668;-86
2023/05/21 12:07:12;;;;;;;21.60;18.77;;;20.20;67.30;;;;;;4888567;29;20126;-85
2023/05/21 12:09:44;;;;;;;41.47;37.42;;;20.20;67.80;;;;;;4895755;29;20032;-86
2023/05/21 12:12:14;;;;;;;34.22;30.58;;;20.20;68.10;;;;;;4900451;29;20155;-85
2023/05/21 12:14:46;;;;;;;32.35;29.05;;;20.20;67.80;;;;;;4880650;29;20029;-86
2023/05/21 12:17:15;;;;;;;32.53;29.25;;;19.90;68.20;;;;;;4898119;29;20104;-85
2023/05/21 12:19:41;;;;;;;25.52;22.75;;;19.80;68.60;;;;;;4885906;29;20637;-85
2023/05/21 12:22:07;;;;;;;22.52;20.27;;;19.90;68.90;;;;;;4901443;29;20263;-84
2023/05/21 12:24:34;;;;;;;23.40;20.55;;;20.00;68.70;;;;;;4902710;29;20028;-83
2023/05/21 12:27:02;;;;;;;20.48;18.30;;;19.80;69.00;;;;;;4904211;29;20033;-83
2023/05/21 12:29:30;;;;;;;22.25;18.95;;;19.80;69.10;;;;;;4904545;29;20055;-86
2023/05/21 12:32:02;;;;;;;21.98;19.67;;;19.70;69.50;;;;;;4881951;29;20825;-85